Time;durP1;ratioP1;P1;durP2;ratioP2;P2;SDS_P1;SDS_P2;PMS_P1;PMS_P2;Temp;Humidity;BMP_temperature;BMP_pressure;BME280_temperature;BME280_humidity;BME280_pressure;Samples;Min_cycle;Max_cycle;Signal;HPM_P1;HPM_P2
2021/09/19 00:02:08;;;;;;;4.82;1.00;;;;;;;14.44;72.12;100515.66;4963568;28;20078;-79
2021/09/19 00:04:35;;;;;;;4.60;1.77;;;;;;;14.43;72.20;100516.81;4946483;28;20097;-78
2021/09/19 00:07:02;;;;;;;1.88;1.67;;;;;;;14.42;71.87;100529.16;4962749;28;20760;-79
2021/09/19 00:09:29;;;;;;;2.72;1.02;;;;;;;14.41;71.78;100516.41;4947742;28;20590;-79
2021/09/19 00:11:59;;;;;;;6.93;1.15;;;;;;;14.42;71.81;100518.03;4963810;28;20558;-79
2021/09/19 00:14:26;;;;;;;3.80;1.15;;;;;;;14.40;71.61;100515.59;4965786;28;20046;-79
2021/09/19 00:16:52;;;;;;;5.90;0.90;;;;;;;14.42;71.44;100515.25;4965327;28;20190;-79
2021/09/19 00:19:20;;;;;;;2.92;1.17;;;;;;;14.42;71.13;100516.06;4965432;28;20047;-79
2021/09/19 00:21:46;;;;;;;3.80;0.95;;;;;;;14.44;71.01;100518.44;4964833;28;20119;-79
2021/09/19 00:24:13;;;;;;;2.25;0.57;;;;;;;14.43;70.84;100514.03;4964088;28;20043;-79
2021/09/19 00:26:40;;;;;;;4.63;1.10;;;;;;;14.45;70.97;100517.28;4964268;28;20109;-79
2021/09/19 00:29:06;;;;;;;4.47;0.90;;;;;;;14.48;71.02;100502.59;4949847;28;20042;-78
2021/09/19 00:31:33;;;;;;;2.80;0.82;;;;;;;14.47;70.97;100514.91;4962913;28;20043;-79
2021/09/19 00:34:00;;;;;;;2.17;0.85;;;;;;;14.49;70.90;100509.75;4946642;28;20051;-79
2021/09/19 00:36:27;;;;;;;6.38;0.82;;;;;;;14.48;71.02;100510.97;4964331;28;20069;-78
2021/09/19 00:38:53;;;;;;;2.00;0.60;;;;;;;14.47;70.95;100514.91;4964728;28;20057;-78
2021/09/19 00:41:20;;;;;;;3.28;0.70;;;;;;;14.46;71.08;100502.16;4939875;28;20121;-79
2021/09/19 00:43:47;;;;;;;2.72;0.68;;;;;;;14.49;71.36;100509.75;4947143;28;20041;-79
2021/09/19 00:46:14;;;;;;;3.72;1.10;;;;;;;14.50;71.18;100503.03;4963784;28;20057;-78
2021/09/19 00:48:41;;;;;;;2.70;0.80;;;;;;;14.54;71.32;100503.84;4965152;28;20057;-78
2021/09/19 00:51:08;;;;;;;5.80;1.08;;;;;;;14.55;71.35;100506.28;4947574;28;20403;-79
2021/09/19 00:53:37;;;;;;;6.78;1.00;;;;;;;14.57;71.03;100506.69;4948094;28;20446;-79
2021/09/19 00:56:06;;;;;;;4.22;0.82;;;;;;;14.54;70.99;100504.66;4946887;28;20508;-78
2021/09/19 00:58:34;;;;;;;8.45;1.23;;;;;;;14.54;71.35;100501.88;4946777;28;20126;-79
2021/09/19 01:01:02;;;;;;;0.95;0.55;;;;;;;14.55;71.19;100502.69;4964795;28;20041;-78
2021/09/19 01:03:30;;;;;;;4.97;1.13;;;;;;;14.54;71.07;100496.31;4964717;28;20078;-79
2021/09/19 01:05:57;;;;;;;2.25;0.80;;;;;;;14.57;71.39;100497.53;4964607;28;20035;-79
2021/09/19 01:08:24;;;;;;;5.05;0.90;;;;;;;14.57;71.29;100503.91;4965690;28;20054;-79
2021/09/19 01:10:51;;;;;;;5.32;0.93;;;;;;;14.58;71.23;100493.56;4963395;28;20093;-79
2021/09/19 01:13:18;;;;;;;7.22;1.40;;;;;;;14.58;71.31;100496.38;4965525;28;20038;-79
2021/09/19 01:15:45;;;;;;;5.07;0.88;;;;;;;14.59;71.23;100495.97;4964459;28;21084;-79
2021/09/19 01:18:14;;;;;;;2.08;1.13;;;;;;;14.59;71.23;100495.97;4948628;28;20043;-79
2021/09/19 01:20:41;;;;;;;6.80;1.92;;;;;;;14.60;71.45;100496.78;4946385;28;20038;-79
2021/09/19 01:23:10;;;;;;;4.82;0.90;;;;;;;14.61;71.57;100487.25;4964127;28;20050;-79
2021/09/19 01:25:39;;;;;;;1.45;0.75;;;;;;;14.59;71.34;100484.81;4964890;28;20074;-79
2021/09/19 01:28:06;;;;;;;1.85;0.80;;;;;;;14.62;71.52;100480.47;4963717;28;20050;-78
2021/09/19 01:30:35;;;;;;;4.38;0.85;;;;;;;14.61;71.56;100482.47;4965600;28;20042;-79
2021/09/19 01:33:03;;;;;;;7.78;1.25;;;;;;;14.62;71.26;100483.25;4963760;28;20042;-79
2021/09/19 01:35:31;;;;;;;7.13;1.90;;;;;;;14.65;71.58;100485.28;4958720;28;20484;-79
2021/09/19 01:37:58;;;;;;;3.42;1.02;;;;;;;14.65;71.64;100488.09;4959077;28;20070;-79
2021/09/19 01:40:26;;;;;;;5.82;1.00;;;;;;;14.67;71.78;100487.72;4963436;28;20050;-78
2021/09/19 01:42:54;;;;;;;2.10;0.80;;;;;;;14.67;71.85;100482.94;4947529;28;20043;-78
2021/09/19 01:45:21;;;;;;;2.08;1.05;;;;;;;14.66;71.91;100484.13;4946604;28;20043;-78
2021/09/19 01:47:49;;;;;;;7.47;1.58;;;;;;;14.66;72.12;100481.34;4949083;28;20507;-78
2021/09/19 01:50:16;;;;;;;5.68;1.65;;;;;;;14.67;72.26;100474.56;4950247;28;20100;-79
2021/09/19 01:52:42;;;;;;;3.55;0.98;;;;;;;14.68;72.24;100480.94;4947275;28;20169;-79
2021/09/19 01:55:09;;;;;;;6.22;1.10;;;;;;;14.67;72.27;100480.13;4969779;28;20050;-79
2021/09/19 01:57:36;;;;;;;5.72;0.95;;;;;;;14.69;72.51;100482.56;4968935;28;20487;-79
2021/09/19 02:00:05;;;;;;;4.88;1.23;;;;;;;14.70;72.71;100486.94;4968956;28;20054;-79
2021/09/19 02:02:36;;;;;;;3.92;1.08;;;;;;;14.68;73.27;100492.91;4967604;28;20050;-78
2021/09/19 02:05:05;;;;;;;4.70;1.17;;;;;;;14.70;73.19;100487.75;4965938;28;20054;-78
2021/09/19 02:07:35;;;;;;;3.42;0.90;;;;;;;14.69;73.45;100486.16;4967340;28;20538;-78
2021/09/19 02:10:13;;;;;;;11.60;2.17;;;;;;;14.70;73.87;100486.94;4971164;28;20055;-79
2021/09/19 02:12:41;;;;;;;5.05;0.82;;;;;;;14.70;73.76;100484.16;4964904;28;20146;-78
2021/09/19 02:15:09;;;;;;;3.88;0.70;;;;;;;14.71;73.85;100483.78;4961915;28;20537;-79
2021/09/19 02:17:37;;;;;;;4.78;0.98;;;;;;;14.71;74.22;100486.56;4968440;28;20042;-78
2021/09/19 02:20:07;;;;;;;4.88;1.23;;;;;;;14.71;74.48;100485.78;4967396;28;20047;-79
2021/09/19 02:22:34;;;;;;;5.68;0.95;;;;;;;14.72;74.69;100487.38;4948944;28;20062;-79
2021/09/19 02:25:01;;;;;;;1.73;0.82;;;;;;;14.69;75.33;100502.06;4968555;28;20047;-78
2021/09/19 02:27:27;;;;;;;12.13;1.98;;;;;;;14.63;75.52;100494.06;4968659;28;20045;-79
2021/09/19 02:29:54;;;;;;;4.20;1.00;;;;;;;14.62;75.98;100494.41;4967981;28;20382;-78
2021/09/19 02:32:21;;;;;;;4.10;1.38;;;;;;;14.62;76.16;100497.19;4967062;28;20035;-79
2021/09/19 02:34:47;;;;;;;7.65;1.10;;;;;;;14.61;76.64;100495.59;4958493;28;20133;-79
2021/09/19 02:37:14;;;;;;;4.90;2.25;;;;;;;14.58;77.06;100496.38;4969279;28;20505;-79
2021/09/19 02:39:41;;;;;;;6.43;1.40;;;;;;;14.57;77.18;100491.97;4968446;28;20509;-79
2021/09/19 02:42:08;;;;;;;4.80;0.88;;;;;;;14.53;77.45;100491.13;4952892;28;20045;-79
2021/09/19 02:44:34;;;;;;;3.58;0.70;;;;;;;14.55;77.64;100499.91;4967750;28;20423;-79
2021/09/19 02:47:01;;;;;;;5.03;1.10;;;;;;;14.55;77.91;100519.41;4946977;28;20124;-79
2021/09/19 02:49:28;;;;;;;7.55;1.50;;;;;;;14.57;77.97;100511.47;4966491;28;20398;-79
2021/09/19 02:51:55;;;;;;;5.13;1.08;;;;;;;14.57;78.12;100511.47;4967140;28;20051;-79
2021/09/19 02:54:21;;;;;;;2.40;1.27;;;;;;;14.52;78.32;100518.19;4966921;28;20034;-79
2021/09/19 02:56:48;;;;;;;5.25;1.40;;;;;;;14.50;78.67;100522.50;4966368;28;20546;-79
2021/09/19 02:59:15;;;;;;;5.75;1.30;;;;;;;14.49;78.88;100530.06;4967203;28;21965;-79
2021/09/19 03:01:42;;;;;;;4.45;1.20;;;;;;;14.48;79.00;100522.88;4968186;28;20046;-79
2021/09/19 03:04:09;;;;;;;1.83;0.90;;;;;;;14.51;78.95;100526.88;4936201;28;20126;-79
2021/09/19 03:06:36;;;;;;;6.00;2.22;;;;;;;14.51;79.19;100538.03;4968353;28;20043;-79
2021/09/19 03:09:03;;;;;;;5.88;1.20;;;;;;;14.49;79.22;100540.41;4968683;28;20398;-79
2021/09/19 03:11:29;;;;;;;5.03;1.10;;;;;;;14.44;79.46;100538.75;4950308;28;20066;-79
2021/09/19 03:13:56;;;;;;;6.20;1.10;;;;;;;14.40;79.53;100542.66;4950503;28;20035;-79
2021/09/19 03:16:23;;;;;;;3.58;1.10;;;;;;;14.39;79.47;100543.84;4949327;28;20054;-79
2021/09/19 03:18:50;;;;;;;8.85;1.70;;;;;;;14.38;79.82;100539.44;4969105;28;20126;-79
2021/09/19 03:21:17;;;;;;;4.28;1.20;;;;;;;14.35;79.77;100538.22;4966161;28;20039;-79
2021/09/19 03:23:43;;;;;;;4.35;1.10;;;;;;;14.34;79.80;100530.25;4948597;28;20406;-79
2021/09/19 03:26:10;;;;;;;3.70;1.10;;;;;;;14.33;79.46;100531.41;4967601;28;20130;-79
2021/09/19 03:28:37;;;;;;;8.52;2.42;;;;;;;14.32;79.76;100540.97;4950451;28;20077;-78
2021/09/19 03:31:03;;;;;;;9.02;1.33;;;;;;;14.31;79.89;100542.94;4948296;28;20146;-79
2021/09/19 03:33:30;;;;;;;3.08;1.52;;;;;;;14.29;79.65;100547.25;4949945;28;20046;-79
2021/09/19 03:35:57;;;;;;;3.50;1.15;;;;;;;14.28;79.90;100546.44;4968102;28;20046;-79
2021/09/19 03:38:24;;;;;;;4.75;1.23;;;;;;;14.26;79.90;100554.38;4968456;28;20054;-79
2021/09/19 03:40:50;;;;;;;4.38;1.45;;;;;;;14.23;79.92;100559.88;4966163;28;20043;-79
2021/09/19 03:43:17;;;;;;;4.38;1.00;;;;;;;14.19;79.79;100554.25;4967078;28;20133;-79
2021/09/19 03:45:44;;;;;;;1.98;1.00;;;;;;;14.18;79.75;100562.97;4965562;28;20094;-79
2021/09/19 03:48:11;;;;;;;2.83;0.93;;;;;;;14.14;79.62;100562.13;4968634;28;20117;-79
2021/09/19 03:50:38;;;;;;;5.80;0.93;;;;;;;14.11;79.84;100565.66;4948941;28;20050;-79
2021/09/19 03:53:05;;;;;;;2.63;1.10;;;;;;;14.07;79.74;100562.00;4966846;28;20034;-79
2021/09/19 03:55:32;;;;;;;5.22;1.00;;;;;;;13.99;79.85;100569.44;4967436;28;20043;-79
2021/09/19 03:58:00;;;;;;;4.97;1.92;;;;;;;13.95;80.03;100572.16;4967523;28;20049;-78
2021/09/19 04:00:28;;;;;;;2.60;1.13;;;;;;;13.92;80.01;100577.66;4967480;28;20057;-79
2021/09/19 04:02:55;;;;;;;3.85;1.10;;;;;;;13.90;79.83;100572.47;4968219;28;20053;-79
2021/09/19 04:05:22;;;;;;;4.68;1.45;;;;;;;13.88;80.31;100572.03;4950395;28;20491;-79
2021/09/19 04:07:49;;;;;;;2.42;1.40;;;;;;;13.81;80.25;100577.50;4967015;28;20043;-79
2021/09/19 04:10:16;;;;;;;5.53;1.55;;;;;;;13.76;80.45;100580.59;4949224;28;20138;-79
2021/09/19 04:12:43;;;;;;;4.18;1.65;;;;;;;13.78;80.39;100578.22;4966506;28;20066;-78
2021/09/19 04:15:11;;;;;;;5.07;1.95;;;;;;;13.76;80.44;100580.59;4948165;28;20046;-79
2021/09/19 04:17:38;;;;;;;3.97;2.50;;;;;;;13.78;80.39;100589.34;4965086;28;20043;-79
2021/09/19 04:20:06;;;;;;;4.25;2.67;;;;;;;13.76;80.47;100588.94;4947653;28;20054;-78
2021/09/19 04:22:33;;;;;;;3.80;2.83;;;;;;;13.73;80.38;100592.44;4967357;28;20127;-79
2021/09/19 04:25:00;;;;;;;3.53;2.65;;;;;;;13.73;80.41;100598.00;4967302;28;20061;-79
2021/09/19 04:27:27;;;;;;;3.00;2.40;;;;;;;13.68;80.30;100592.75;4964533;28;20074;-79
2021/09/19 04:29:54;;;;;;;4.63;2.47;;;;;;;13.65;80.09;100590.72;4964040;28;20495;-79
2021/09/19 04:32:21;;;;;;;5.28;2.92;;;;;;;13.63;80.19;100593.06;4965155;28;20094;-79
2021/09/19 04:34:48;;;;;;;4.10;2.90;;;;;;;13.64;80.06;100600.22;4948183;28;20071;-79
2021/09/19 04:37:16;;;;;;;5.07;2.25;;;;;;;13.59;80.00;100603.31;4965599;28;20050;-79
2021/09/19 04:39:45;;;;;;;2.30;2.10;;;;;;;13.51;79.97;100612.69;4965476;28;20042;-78
2021/09/19 04:42:13;;;;;;;4.75;2.58;;;;;;;13.43;79.90;100610.94;4949018;28;20407;-78
2021/09/19 04:44:41;;;;;;;2.83;2.50;;;;;;;13.34;80.15;100618.72;4948362;28;20046;-79
2021/09/19 04:47:09;;;;;;;4.82;2.58;;;;;;;13.33;80.20;100623.47;4963663;28;20047;-79
2021/09/19 04:49:36;;;;;;;3.30;1.42;;;;;;;13.32;79.92;100623.81;4950565;28;20046;-78
2021/09/19 04:52:03;;;;;;;2.85;2.30;;;;;;;13.29;80.06;100627.34;4963148;28;20043;-79
2021/09/19 04:54:30;;;;;;;2.85;1.42;;;;;;;13.26;80.14;100630.88;4965580;28;20047;-79
2021/09/19 04:56:57;;;;;;;2.47;1.48;;;;;;;13.25;80.39;100626.47;4964840;28;20047;-79
2021/09/19 04:59:23;;;;;;;2.08;1.38;;;;;;;13.27;80.08;100619.38;4948263;28;20054;-78
2021/09/19 05:01:50;;;;;;;2.22;1.42;;;;;;;13.22;80.01;100622.44;4964807;28;20472;-78
2021/09/19 05:04:17;;;;;;;3.85;1.67;;;;;;;13.19;79.87;100619.56;4965635;28;20592;-78
2021/09/19 05:06:44;;;;;;;4.97;1.95;;;;;;;13.17;79.79;100616.38;4963222;28;20058;-78
2021/09/19 05:09:11;;;;;;;5.10;2.13;;;;;;;13.13;80.04;100623.84;4964556;28;20046;-79
2021/09/19 05:11:38;;;;;;;7.18;1.70;;;;;;;13.10;80.16;100621.78;4963718;28;20053;-79
2021/09/19 05:14:04;;;;;;;6.72;1.70;;;;;;;13.09;80.14;100622.94;4964946;28;20047;-79
2021/09/19 05:16:31;;;;;;;5.88;1.45;;;;;;;13.05;80.26;100627.59;4940008;28;20058;-78
2021/09/19 05:18:58;;;;;;;3.63;1.35;;;;;;;13.07;80.51;100625.28;4947958;28;20046;-79
2021/09/19 05:21:25;;;;;;;6.93;1.90;;;;;;;13.04;80.61;100620.44;4965728;28;20535;-78
2021/09/19 05:23:53;;;;;;;3.95;1.40;;;;;;;13.01;80.50;100632.25;4952651;28;20046;-78
2021/09/19 05:26:25;;;;;;;6.50;1.83;;;;;;;12.95;80.63;100633.72;4968244;28;20133;-79
2021/09/19 05:28:52;;;;;;;3.10;1.30;;;;;;;12.95;80.61;100634.53;4969950;28;20043;-78
2021/09/19 05:31:19;;;;;;;5.03;1.90;;;;;;;12.91;80.64;100614.22;4970343;28;20090;-78
2021/09/19 05:33:46;;;;;;;8.38;1.88;;;;;;;12.90;80.59;100625.66;4951359;28;20072;-79
2021/09/19 05:36:14;;;;;;;5.20;2.22;;;;;;;12.89;80.53;100624.88;4944337;28;20047;-79
2021/09/19 05:38:41;;;;;;;6.05;1.92;;;;;;;12.86;80.58;100633.94;4969630;28;20133;-78
2021/09/19 05:41:08;;;;;;;3.08;1.52;;;;;;;12.81;80.73;100632.22;4968235;28;20376;-78
2021/09/19 05:43:34;;;;;;;5.88;1.63;;;;;;;12.80;81.10;100627.88;4949796;28;21030;-79
2021/09/19 05:46:01;;;;;;;6.20;2.08;;;;;;;12.81;80.80;100628.69;4967600;28;20066;-79
2021/09/19 05:48:28;;;;;;;4.28;2.20;;;;;;;12.79;80.90;100626.25;4943689;28;20054;-79
2021/09/19 05:50:55;;;;;;;5.93;2.25;;;;;;;12.79;80.92;100633.75;4952595;28;20121;-79
2021/09/19 05:53:22;;;;;;;7.80;3.35;;;;;;;12.76;81.33;100635.28;4949972;28;20039;-78
2021/09/19 05:55:48;;;;;;;6.97;2.72;;;;;;;12.77;81.42;100636.09;4951657;28;20046;-78
2021/09/19 05:58:15;;;;;;;6.50;3.78;;;;;;;12.78;81.63;100635.75;4969207;28;20051;-78
2021/09/19 06:00:42;;;;;;;9.52;3.42;;;;;;;12.81;81.58;100634.22;4943140;28;20050;-79
2021/09/19 06:03:10;;;;;;;11.73;4.25;;;;;;;12.81;81.64;100637.00;4944130;28;20129;-78
2021/09/19 06:05:37;;;;;;;5.93;3.60;;;;;;;12.84;81.56;100648.19;4934635;28;20623;-79
2021/09/19 06:08:05;;;;;;;8.98;3.90;;;;;;;12.83;81.61;100649.38;4943321;28;20094;-78
2021/09/19 06:10:33;;;;;;;9.55;4.97;;;;;;;12.80;81.69;100647.31;4950334;28;20439;-79
2021/09/19 06:12:59;;;;;;;14.55;5.03;;;;;;;12.77;81.85;100661.91;4968374;28;20094;-79
2021/09/19 06:15:26;;;;;;;6.63;4.22;;;;;;;12.76;81.93;100662.28;4969068;28;20510;-79
2021/09/19 06:17:53;;;;;;;8.50;3.78;;;;;;;12.75;82.11;100669.81;4951251;28;20057;-78
2021/09/19 06:20:20;;;;;;;10.15;4.07;;;;;;;12.73;82.30;100676.91;4969626;28;20053;-78
2021/09/19 06:22:47;;;;;;;6.90;3.90;;;;;;;12.76;82.20;100679.75;4950756;28;20047;-78
2021/09/19 06:25:14;;;;;;;8.20;4.32;;;;;;;12.81;82.06;100687.81;4967569;28;20046;-78
2021/09/19 06:27:41;;;;;;;15.93;6.63;;;;;;;12.87;82.40;100685.56;4968055;28;20057;-79
2021/09/19 06:30:10;;;;;;;8.50;4.30;;;;;;;12.89;82.66;100685.19;4966926;28;20039;-79
2021/09/19 06:32:37;;;;;;;7.20;3.90;;;;;;;12.93;82.46;100697.19;4967080;28;20110;-79
2021/09/19 06:35:06;;;;;;;7.97;3.72;;;;;;;12.96;82.68;100707.59;4952008;28;20065;-79
2021/09/19 06:37:33;;;;;;;11.18;4.22;;;;;;;12.96;82.32;100708.41;4966336;28;20059;-78
2021/09/19 06:40:00;;;;;;;13.95;4.40;;;;;;;13.01;82.67;100715.63;4964439;28;20483;-79
2021/09/19 06:42:27;;;;;;;11.48;4.50;;;;;;;13.02;82.75;100718.06;4944011;28;20050;-79
2021/09/19 06:44:53;;;;;;;10.85;4.10;;;;;;;13.04;82.72;100731.59;4949370;28;20054;-79
2021/09/19 06:47:20;;;;;;;5.40;3.35;;;;;;;13.06;82.81;100740.38;4966066;28;20057;-79
2021/09/19 06:49:47;;;;;;;7.32;3.88;;;;;;;13.10;82.40;100733.78;4948958;28;20372;-79
2021/09/19 06:52:14;;;;;;;8.68;4.75;;;;;;;13.13;82.49;100738.59;4948350;28;20047;-79
2021/09/19 06:54:42;;;;;;;5.78;3.80;;;;;;;13.15;82.35;100741.03;4969078;28;20097;-78
2021/09/19 06:57:10;;;;;;;9.02;4.10;;;;;;;13.20;82.43;100746.28;4967278;28;20050;-79
2021/09/19 06:59:37;;;;;;;6.85;4.35;;;;;;;13.20;82.31;100744.34;4966166;28;20123;-79
2021/09/19 07:02:04;;;;;;;8.18;5.22;;;;;;;13.25;82.33;100754.34;4966328;28;20439;-79
2021/09/19 07:04:32;;;;;;;10.68;5.00;;;;;;;13.25;82.07;100751.56;4964986;28;20530;-79
2021/09/19 07:06:59;;;;;;;9.82;5.25;;;;;;;13.26;82.17;100767.09;4965397;28;20035;-79
2021/09/19 07:09:25;;;;;;;10.38;4.63;;;;;;;13.27;82.19;100763.13;4962023;28;20047;-78
2021/09/19 07:11:52;;;;;;;10.23;5.47;;;;;;;13.29;82.07;100772.72;4967412;28;20161;-78
2021/09/19 07:14:19;;;;;;;10.77;4.20;;;;;;;13.28;81.95;100776.69;4943741;28;20043;-79
2021/09/19 07:16:46;;;;;;;7.45;3.95;;;;;;;13.27;81.99;100779.81;4965371;28;20134;-78
2021/09/19 07:19:13;;;;;;;9.07;3.95;;;;;;;13.30;81.89;100784.66;4946543;28;20074;-79
2021/09/19 07:21:40;;;;;;;6.82;3.58;;;;;;;13.31;81.62;100766.81;4966425;28;20046;-79
2021/09/19 07:24:06;;;;;;;6.72;3.10;;;;;;;13.34;81.63;100780.78;4966483;28;20491;-79
2021/09/19 07:26:33;;;;;;;6.45;3.08;;;;;;;13.31;81.81;100786.28;4967176;28;20042;-78
2021/09/19 07:29:00;;;;;;;8.68;3.22;;;;;;;13.31;81.47;100791.84;4966909;28;20042;-79
2021/09/19 07:31:27;;;;;;;5.95;3.03;;;;;;;13.36;81.63;100802.69;4965075;28;20071;-79
2021/09/19 07:33:54;;;;;;;7.82;3.50;;;;;;;13.39;81.84;100799.19;4967203;28;20093;-79
2021/09/19 07:36:27;;;;;;;11.60;4.10;;;;;;;13.45;81.60;100802.47;4965778;28;20372;-79
2021/09/19 07:38:54;;;;;;;6.63;3.65;;;;;;;13.49;81.32;100804.16;4965637;28;20048;-79
2021/09/19 07:41:21;;;;;;;6.55;3.42;;;;;;;13.52;81.37;100811.78;4965940;28;20039;-79
2021/09/19 07:43:48;;;;;;;5.82;3.90;;;;;;;13.55;81.11;100816.63;4940243;28;20070;-79
2021/09/19 07:46:17;;;;;;;8.63;4.15;;;;;;;13.56;81.05;100812.66;4940626;28;20046;-79
2021/09/19 07:48:45;;;;;;;6.70;3.03;;;;;;;13.62;80.86;100830.69;4965203;28;20043;-79
2021/09/19 07:51:12;;;;;;;13.32;4.13;;;;;;;13.64;80.85;100820.00;4963102;28;20496;-79
2021/09/19 07:53:39;;;;;;;6.65;3.15;;;;;;;13.70;80.83;100817.72;4965427;28;20055;-79
2021/09/19 07:56:06;;;;;;;7.10;3.33;;;;;;;13.78;80.57;100816.72;4949198;28;20075;-79
2021/09/19 07:58:33;;;;;;;7.30;3.40;;;;;;;13.85;80.70;100826.03;4951556;28;20097;-79
2021/09/19 08:00:59;;;;;;;11.38;3.90;;;;;;;13.86;80.32;100819.28;4949068;28;20125;-79
2021/09/19 08:03:27;;;;;;;8.80;3.67;;;;;;;13.93;80.34;100819.44;4968425;28;20629;-79
2021/09/19 08:05:53;;;;;;;5.40;3.33;;;;;;;14.03;80.20;100829.97;4964566;28;20098;-78
2021/09/19 08:08:20;;;;;;;6.72;3.30;;;;;;;14.12;80.00;100834.53;4960101;28;20043;-79
2021/09/19 08:10:47;;;;;;;7.25;3.05;;;;;;;14.13;79.75;100841.72;4956833;28;20055;-79
2021/09/19 08:13:14;;;;;;;7.10;2.95;;;;;;;14.14;79.31;100843.34;4950289;28;20051;-79
2021/09/19 08:15:41;;;;;;;8.70;3.58;;;;;;;14.14;79.35;100835.75;4932509;28;22167;-79
2021/09/19 08:18:08;;;;;;;7.90;3.42;;;;;;;14.16;79.25;100849.34;4965125;28;20051;-79
2021/09/19 08:20:34;;;;;;;7.88;2.97;;;;;;;14.21;79.01;100860.19;4941429;28;20038;-79
2021/09/19 08:23:01;;;;;;;8.35;2.92;;;;;;;14.20;78.89;100844.63;4968715;28;20046;-79
2021/09/19 08:25:28;;;;;;;5.97;2.97;;;;;;;14.31;78.97;100862.38;4966472;28;20042;-79
2021/09/19 08:27:55;;;;;;;8.40;2.78;;;;;;;14.33;78.63;100860.03;4938827;28;20035;-79
2021/09/19 08:30:21;;;;;;;5.30;2.72;;;;;;;14.39;78.60;100861.38;4949742;28;20046;-79
2021/09/19 08:32:48;;;;;;;4.35;2.63;;;;;;;14.43;78.48;100860.25;4965505;28;20046;-79
2021/09/19 08:35:16;;;;;;;5.40;3.25;;;;;;;14.52;78.47;100863.63;4967840;28;20132;-79
2021/09/19 08:37:43;;;;;;;7.07;2.70;;;;;;;14.60;79.04;100864.56;4949452;28;20050;-79
2021/09/19 08:40:11;;;;;;;5.85;2.75;;;;;;;14.68;78.62;100874.66;4969254;28;20039;-80
2021/09/19 08:42:39;;;;;;;11.43;3.35;;;;;;;14.73;78.83;100879.94;4965331;28;20043;-79
2021/09/19 08:45:07;;;;;;;8.13;2.53;;;;;;;14.77;79.05;100878.03;4968193;28;20042;-79
2021/09/19 08:47:37;;;;;;;7.68;2.03;;;;;;;14.90;79.31;100881.44;4962325;28;20414;-80
2021/09/19 08:50:07;;;;;;;8.82;2.30;;;;;;;14.98;79.35;100888.75;4962552;28;20050;-81
2021/09/19 08:52:34;;;;;;;4.50;1.70;;;;;;;15.04;79.65;100902.00;4963270;28;20039;-80
2021/09/19 08:55:01;;;;;;;6.25;2.13;;;;;;;15.11;81.35;100899.38;4957306;28;20105;-79
2021/09/19 08:57:28;;;;;;;5.82;1.83;;;;;;;15.27;82.15;100900.00;4962435;28;20053;-81
2021/09/19 09:00:06;;;;;;;10.88;2.17;;;;;;;15.63;82.00;100906.19;4958366;28;20046;-81
2021/09/19 09:02:54;;;;;;;8.63;2.08;;;;;;;15.93;76.55;100903.47;4963873;28;20077;-81
2021/09/19 09:05:27;;;;;;;3.63;1.80;;;;;;;16.47;78.54;100894.59;4932629;28;20052;-79
2021/09/19 09:07:56;;;;;;;6.75;2.00;;;;;;;16.86;77.00;100898.66;4949019;28;20045;-78
2021/09/19 09:10:42;;;;;;;7.13;2.10;;;;;;;17.57;73.82;100902.91;4939091;28;20642;-78
2021/09/19 09:13:13;;;;;;;6.93;1.75;;;;;;;18.44;73.26;100906.59;4958260;28;20436;-78
2021/09/19 09:15:41;;;;;;;7.60;2.25;;;;;;;19.16;70.21;100915.66;4964607;28;20058;-78
2021/09/19 09:18:12;;;;;;;6.22;1.80;;;;;;;19.71;67.43;100912.47;4966995;28;20467;-78
2021/09/19 09:20:58;;;;;;;7.15;1.92;;;;;;;20.44;63.78;100910.69;4964919;28;20126;-78
2021/09/19 09:23:26;;;;;;;4.35;1.48;;;;;;;20.84;63.54;100907.25;4963011;28;20058;-78
2021/09/19 09:26:18;;;;;;;6.18;2.33;;;;;;;21.17;60.84;100901.06;4963668;28;20050;-79
2021/09/19 09:28:56;;;;;;;5.65;2.40;;;;;;;21.61;58.76;100905.91;4964897;28;20042;-78
2021/09/19 09:31:27;;;;;;;3.67;1.77;;;;;;;21.67;59.22;100914.72;4963312;28;20058;-78
2021/09/19 09:34:11;;;;;;;8.07;2.05;;;;;;;22.07;58.06;100915.97;4966535;28;20043;-76
2021/09/19 09:36:40;;;;;;;3.33;1.65;;;;;;;22.43;57.27;100915.13;4967115;28;20501;-76
2021/09/19 09:39:21;;;;;;;4.53;1.70;;;;;;;22.75;54.97;100916.75;4949828;28;20433;-76
2021/09/19 09:41:49;;;;;;;5.55;1.95;;;;;;;22.99;54.88;100922.06;4948299;28;20123;-77
2021/09/19 09:44:26;;;;;;;6.30;1.85;;;;;;;23.04;51.82;100926.44;4966990;28;20061;-76
2021/09/19 09:46:54;;;;;;;6.28;2.20;;;;;;;23.25;53.03;100922.47;4961921;28;20043;-77
2021/09/19 09:49:35;;;;;;;10.13;2.28;;;;;;;23.46;51.38;100934.28;4964721;28;20043;-77
2021/09/19 09:52:18;;;;;;;5.30;1.25;;;;;;;23.73;50.15;100927.78;4964463;28;20038;-76
2021/09/19 09:55:15;;;;;;;4.70;1.45;;;;;;;23.78;48.47;100928.06;4963250;28;20043;-77
2021/09/19 09:58:12;;;;;;;3.40;1.05;;;;;;;23.42;48.57;100929.91;4964198;28;20134;-77
2021/09/19 10:00:40;;;;;;;5.10;1.27;;;;;;;23.57;49.80;100929.25;4926226;28;20046;-77
2021/09/19 10:03:08;;;;;;;3.05;1.10;;;;;;;23.89;48.98;100933.53;4946607;28;20051;-77
2021/09/19 10:05:35;;;;;;;6.32;1.48;;;;;;;23.97;48.21;100932.19;4964545;28;20142;-77
2021/09/19 10:08:03;;;;;;;5.50;1.30;;;;;;;23.78;48.31;100936.56;4963795;28;20410;-77
2021/09/19 10:10:32;;;;;;;6.05;1.10;;;;;;;23.56;47.66;100946.66;4967687;28;21136;-77
2021/09/19 10:12:59;;;;;;;4.85;0.85;;;;;;;23.07;47.76;100942.53;4964975;28;20046;-76
2021/09/19 10:15:27;;;;;;;6.22;2.15;;;;;;;23.08;47.83;100937.69;4965629;28;20042;-77
2021/09/19 10:17:54;;;;;;;4.28;1.15;;;;;;;23.23;47.41;100947.53;4950792;28;20047;-77
2021/09/19 10:20:38;;;;;;;3.30;0.70;;;;;;;23.19;46.98;100947.63;4967776;28;20043;-79
2021/09/19 10:23:11;;;;;;;2.95;0.90;;;;;;;23.34;46.06;100956.66;4966833;28;20043;-77
2021/09/19 10:25:50;;;;;;;4.93;1.30;;;;;;;23.30;46.30;100953.09;4947676;28;20141;-78
2021/09/19 10:28:26;;;;;;;5.97;0.90;;;;;;;22.88;46.28;100948.84;4949601;28;20102;-78
2021/09/19 10:31:08;;;;;;;3.85;0.77;;;;;;;21.94;47.64;100955.16;4965918;28;20046;-80
2021/09/19 10:33:37;;;;;;;4.38;0.93;;;;;;;21.91;47.86;100946.75;4967593;28;20042;-78
2021/09/19 10:36:23;;;;;;;5.25;0.93;;;;;;;21.64;47.86;100961.44;4964942;28;20047;-79
2021/09/19 10:38:50;;;;;;;5.85;1.40;;;;;;;21.10;48.55;100960.22;4965230;28;20057;-78
2021/09/19 10:41:22;;;;;;;5.25;0.90;;;;;;;20.60;49.13;100958.84;4966303;28;20053;-79
2021/09/19 10:43:53;;;;;;;6.63;1.27;;;;;;;20.65;49.06;100961.25;4948100;28;20050;-78
2021/09/19 10:46:35;;;;;;;;;;;;;;;20.36;48.92;100960.53;4947827;28;20518;-79
2021/09/19 10:49:22;;;;;;;5.68;1.13;;;;;;;20.14;49.85;100955.34;4966637;28;19976;-78
2021/09/19 10:52:00;;;;;;;9.60;1.75;;;;;;;20.51;49.30;100955.69;4967190;28;20558;-78
2021/09/19 10:54:44;;;;;;;4.45;1.05;;;;;;;20.63;49.42;100952.41;4966823;28;20105;-79
2021/09/19 10:57:28;;;;;;;6.43;2.17;;;;;;;20.84;49.54;100952.28;4949065;28;20061;-79
2021/09/19 11:00:07;;;;;;;3.30;1.00;;;;;;;20.48;49.07;100962.91;4949122;28;20078;-79
2021/09/19 11:02:39;;;;;;;5.15;1.17;;;;;;;19.86;49.98;100957.00;4965614;28;20043;-79
2021/09/19 11:05:23;;;;;;;4.43;1.25;;;;;;;19.56;50.57;100951.00;4965101;28;20081;-79
2021/09/19 11:08:03;;;;;;;8.38;1.08;;;;;;;19.58;50.93;100954.22;4965360;28;20054;-78
2021/09/19 11:10:30;;;;;;;3.63;0.70;;;;;;;19.59;51.43;100955.78;4965965;28;20046;-79
2021/09/19 11:12:57;;;;;;;3.28;0.82;;;;;;;19.44;51.31;100959.81;4965590;28;20154;-79
2021/09/19 11:15:25;;;;;;;2.60;1.02;;;;;;;19.17;51.47;100958.53;4965610;28;20097;-79
2021/09/19 11:17:52;;;;;;;6.00;1.58;;;;;;;19.13;51.48;100966.16;4931575;28;20427;-79
2021/09/19 11:20:21;;;;;;;7.47;1.55;;;;;;;19.16;51.74;100966.19;4964187;28;20057;-79
2021/09/19 11:22:54;;;;;;;3.58;1.00;;;;;;;19.14;51.89;100962.94;4942026;28;20508;-79
2021/09/19 11:25:22;;;;;;;5.00;0.90;;;;;;;19.00;52.31;100962.13;4963792;28;20500;-78
2021/09/19 11:27:51;;;;;;;2.83;0.70;;;;;;;18.92;52.76;100966.09;4965823;28;20050;-79
2021/09/19 11:30:21;;;;;;;5.63;1.10;;;;;;;18.83;53.07;100964.47;4948688;28;20039;-79
2021/09/19 11:32:48;;;;;;;3.45;1.17;;;;;;;18.77;53.25;100968.06;4948907;28;20414;-79